Time;durP1;ratioP1;P1;durP2;ratioP2;P2;SDS_P1;SDS_P2;PMS_P1;PMS_P2;Temp;Humidity;BMP_temperature;BMP_pressure;BME280_temperature;BME280_humidity;BME280_pressure;Samples;Min_cycle;Max_cycle;Signal;HPM_P1;HPM_P2
2022/09/30 03:04:02;;;;;;;12.85;8.70;;;;;;;6.79;63.11;100271.72;4993037;23;20051;-71
2022/09/30 03:06:29;;;;;;;13.60;9.10;;;;;;;6.71;63.17;100283.13;4919900;29;20052;-72
2022/09/30 03:08:57;;;;;;;18.98;8.90;;;;;;;6.77;63.13;100280.84;4952375;29;20075;-71
2022/09/30 03:11:27;;;;;;;14.95;8.38;;;;;;;6.68;63.49;100272.75;4945111;29;20051;-71
2022/09/30 03:14:31;;;;;;;12.35;8.55;;;;;;;6.77;63.24;100287.00;4934310;29;20044;-71
2022/09/30 03:17:20;;;;;;;16.38;9.15;;;;;;;6.79;63.19;100284.22;4934045;29;20044;-71
2022/09/30 03:20:20;;;;;;;13.95;8.98;;;;;;;6.79;62.85;100277.03;4939272;29;20411;-72
2022/09/30 03:23:08;;;;;;;9.65;7.88;;;;;;;6.84;63.11;100276.59;4938388;29;20040;-72
2022/09/30 03:25:54;;;;;;;14.82;8.63;;;;;;;6.77;63.36;100275.50;4951672;29;20384;-72
2022/09/30 03:28:50;;;;;;;12.98;8.18;;;;;;;6.87;63.08;100292.31;4951274;29;20404;-72
2022/09/30 03:31:37;;;;;;;12.52;9.23;;;;;;;6.83;63.18;100291.75;4949283;29;20043;-72
2022/09/30 03:34:07;;;;;;;12.93;9.15;;;;;;;6.82;63.12;100297.25;4951462;29;20498;-72
2022/09/30 03:36:49;;;;;;;13.52;9.38;;;;;;;6.85;62.86;100297.78;4947540;28;20048;-72
2022/09/30 03:39:34;;;;;;;13.30;9.40;;;;;;;6.71;63.15;100301.78;4932917;29;20047;-72
2022/09/30 03:42:17;;;;;;;11.23;7.97;;;;;;;6.80;62.95;100302.72;4932176;29;20043;-72
2022/09/30 03:45:12;;;;;;;15.48;9.00;;;;;;;6.66;63.61;100314.69;4933411;29;20430;-72
2022/09/30 03:47:45;;;;;;;12.23;8.95;;;;;;;6.64;63.67;100314.00;4932958;29;20074;-72
2022/09/30 03:50:16;;;;;;;12.35;8.55;;;;;;;6.65;63.55;100318.34;4923434;29;20481;-72
2022/09/30 03:52:42;;;;;;;11.70;6.35;;;;;;;6.67;63.19;100312.88;4932978;29;20477;-72
2022/09/30 03:55:10;;;;;;;13.25;9.60;;;;;;;6.61;63.17;100314.28;4932592;29;20059;-73
2022/09/30 03:57:37;;;;;;;14.68;9.23;;;;;;;6.61;63.49;100311.63;4933735;29;20098;-72
2022/09/30 04:00:05;;;;;;;15.13;8.82;;;;;;;6.45;63.77;100311.38;4933035;29;20043;-72
2022/09/30 04:02:36;;;;;;;12.23;9.18;;;;;;;6.38;63.97;100308.44;4932656;29;20401;-72
2022/09/30 04:05:04;;;;;;;15.55;9.60;;;;;;;6.44;63.57;100318.53;4932572;29;20051;-72
2022/09/30 04:07:31;;;;;;;14.05;8.65;;;;;;;6.45;63.84;100314.88;4933246;29;20447;-72
2022/09/30 04:09:57;;;;;;;13.55;9.05;;;;;;;6.56;63.31;100327.19;4932930;29;20098;-72
2022/09/30 04:12:24;;;;;;;17.13;9.52;;;;;;;6.35;64.12;100321.22;4942104;29;20054;-72
2022/09/30 04:14:51;;;;;;;14.25;9.00;;;;;;;6.13;64.59;100328.50;4952104;29;20054;-72
2022/09/30 04:17:17;;;;;;;14.80;9.30;;;;;;;6.17;64.58;100331.72;4951575;29;20043;-72
2022/09/30 04:19:44;;;;;;;15.57;10.27;;;;;;;6.32;64.08;100330.34;4952234;28;20055;-72
2022/09/30 04:22:10;;;;;;;13.05;9.15;;;;;;;6.41;63.59;100336.63;4950210;29;20058;-72
2022/09/30 04:24:38;;;;;;;13.73;9.10;;;;;;;6.47;63.59;100333.41;4951939;29;20040;-72
2022/09/30 04:27:04;;;;;;;15.43;9.25;;;;;;;6.41;64.03;100333.97;4951615;29;20061;-72
2022/09/30 04:29:31;;;;;;;15.60;9.50;;;;;;;6.38;63.90;100339.56;4951138;29;20047;-72
2022/09/30 04:31:57;;;;;;;13.07;9.40;;;;;;;6.36;63.86;100337.06;4952261;29;20051;-71
2022/09/30 04:34:24;;;;;;;14.25;9.20;;;;;;;6.37;63.97;100341.41;4950065;29;20134;-70
2022/09/30 04:36:50;;;;;;;14.32;9.60;;;;;;;6.40;63.87;100341.13;4951920;29;20050;-71
2022/09/30 04:39:17;;;;;;;15.55;9.38;;;;;;;6.40;63.77;100340.28;4951569;29;20120;-72
2022/09/30 04:41:43;;;;;;;12.82;8.68;;;;;;;6.35;63.84;100340.69;4951061;29;20058;-72
2022/09/30 04:44:10;;;;;;;14.68;9.85;;;;;;;6.35;63.82;100353.19;4951040;29;20499;-72
2022/09/30 04:46:37;;;;;;;14.02;9.40;;;;;;;6.35;63.93;100354.00;4951484;28;20059;-71
2022/09/30 04:49:04;;;;;;;14.30;9.55;;;;;;;6.36;63.55;100362.88;4955061;29;20186;-72
2022/09/30 04:51:37;;;;;;;17.25;9.80;;;;;;;6.33;63.99;100368.47;4955342;29;20491;-70
2022/09/30 04:54:03;;;;;;;20.95;10.90;;;;;;;6.35;63.85;100370.00;4954327;29;20410;-72
2022/09/30 04:56:30;;;;;;;17.65;11.57;;;;;;;6.29;64.09;100372.38;4953870;28;20047;-70
2022/09/30 04:58:56;;;;;;;20.08;12.57;;;;;;;6.28;64.21;100376.03;4955559;29;20047;-72
2022/09/30 05:01:23;;;;;;;27.00;13.95;;;;;;;6.22;64.08;100372.09;4954505;29;20043;-72
2022/09/30 05:03:49;;;;;;;22.85;13.15;;;;;;;6.16;64.04;100386.81;4952074;29;22378;-70
2022/09/30 05:06:16;;;;;;;18.75;12.23;;;;;;;6.16;64.61;100388.63;4954460;29;20124;-72
2022/09/30 05:08:42;;;;;;;21.80;12.82;;;;;;;6.26;64.07;100384.19;4954758;28;20058;-71
2022/09/30 05:11:17;;;;;;;17.58;11.18;;;;;;;6.27;64.15;100385.03;4945303;29;20079;-72
2022/09/30 05:13:44;;;;;;;17.35;11.35;;;;;;;6.30;64.11;100390.91;4935855;29;20047;-72
2022/09/30 05:16:11;;;;;;;15.70;10.98;;;;;;;6.30;64.01;100401.56;4935649;29;20056;-72
2022/09/30 05:18:40;;;;;;;19.02;10.55;;;;;;;6.25;63.98;100398.44;4934290;29;20427;-72
2022/09/30 05:21:07;;;;;;;17.15;10.40;;;;;;;6.27;63.98;100395.69;4935177;29;20072;-72
2022/09/30 05:23:33;;;;;;;21.48;11.73;;;;;;;6.23;64.38;100390.59;4934603;29;20492;-72
2022/09/30 05:26:02;;;;;;;24.75;12.55;;;;;;;6.30;64.06;100392.75;4936805;29;20058;-72
2022/09/30 05:28:30;;;;;;;17.38;11.52;;;;;;;6.24;63.96;100402.09;4928270;29;20048;-72
2022/09/30 05:30:58;;;;;;;17.52;10.32;;;;;;;6.18;64.19;100399.97;4934415;29;20132;-72
2022/09/30 05:33:28;;;;;;;23.08;10.40;;;;;;;6.35;63.88;100401.97;4934675;29;20431;-72
2022/09/30 05:35:58;;;;;;;19.95;10.48;;;;;;;6.35;63.75;100403.81;4934254;29;20059;-72
2022/09/30 05:38:24;;;;;;;15.00;10.15;;;;;;;6.42;63.58;100405.75;4934465;29;20043;-72
2022/09/30 05:40:51;;;;;;;17.75;10.88;;;;;;;6.47;63.59;100408.00;4933222;29;20056;-72
2022/09/30 05:43:18;;;;;;;15.52;10.63;;;;;;;6.40;64.01;100412.22;4934551;29;20055;-70
2022/09/30 05:45:53;;;;;;;23.13;11.48;;;;;;;6.43;64.05;100406.63;4933666;29;20054;-72
2022/09/30 05:48:19;;;;;;;23.25;11.95;;;;;;;6.57;63.79;100408.84;4935246;29;20052;-72
2022/09/30 05:50:49;;;;;;;16.58;11.95;;;;;;;6.62;63.64;100411.09;4933980;29;20048;-72
2022/09/30 05:53:18;;;;;;;19.50;11.18;;;;;;;6.44;63.95;100417.13;4933219;29;20408;-72
2022/09/30 05:55:46;;;;;;;22.25;11.80;;;;;;;5.94;65.50;100429.66;4934065;29;20056;-72
2022/09/30 05:58:16;;;;;;;19.60;11.80;;;;;;;6.17;65.02;100423.09;4935552;29;20048;-72
2022/09/30 06:00:45;;;;;;;19.08;11.13;;;;;;;6.02;65.58;100419.19;4934696;29;20475;-72
2022/09/30 06:03:12;;;;;;;20.70;12.48;;;;;;;6.12;65.35;100425.38;4934621;29;20054;-72
2022/09/30 06:05:39;;;;;;;16.60;11.85;;;;;;;6.19;65.07;100421.16;4934745;29;20050;-72
2022/09/30 06:08:06;;;;;;;26.98;11.73;;;;;;;6.13;65.53;100424.38;4934365;29;20052;-72
2022/09/30 06:10:34;;;;;;;19.77;11.80;;;;;;;6.46;64.25;100431.16;4938320;29;20051;-72
2022/09/30 06:13:04;;;;;;;27.75;12.27;;;;;;;6.66;63.97;100433.78;4953764;29;20471;-72
2022/09/30 06:15:31;;;;;;;18.98;11.70;;;;;;;6.65;63.56;100445.44;4954491;29;20055;-72
2022/09/30 06:17:57;;;;;;;22.88;12.57;;;;;;;6.80;63.48;100443.19;4953542;29;20047;-72
2022/09/30 06:20:24;;;;;;;25.40;12.23;;;;;;;6.86;63.10;100445.28;4954123;28;20051;-72
2022/09/30 06:22:51;;;;;;;17.20;11.40;;;;;;;6.82;63.19;100444.72;4954032;29;20054;-73
2022/09/30 06:25:17;;;;;;;19.40;12.05;;;;;;;6.87;63.32;100458.47;4953715;29;20494;-72
2022/09/30 06:27:47;;;;;;;35.10;12.55;;;;;;;6.98;62.86;100457.50;4954386;29;20047;-73
2022/09/30 06:30:14;;;;;;;18.90;10.95;;;;;;;7.09;62.69;100460.00;4940476;29;20067;-71
2022/09/30 06:32:41;;;;;;;17.55;11.07;;;;;;;6.97;63.03;100471.78;4953445;29;20051;-71
2022/09/30 06:35:09;;;;;;;15.57;11.07;;;;;;;7.14;62.36;100462.22;4952641;29;20050;-71
2022/09/30 06:37:38;;;;;;;17.75;10.57;;;;;;;7.28;62.26;100466.25;4954338;28;20086;-72
2022/09/30 06:40:05;;;;;;;21.67;11.50;;;;;;;7.28;62.19;100466.25;4952942;29;20423;-72
2022/09/30 06:42:32;;;;;;;27.90;12.20;;;;;;;7.33;62.31;100466.66;4953442;29;20055;-72
2022/09/30 06:44:58;;;;;;;21.50;10.63;;;;;;;7.40;61.86;100465.94;4952279;29;20043;-72
2022/09/30 06:47:25;;;;;;;14.15;10.30;;;;;;;8.19;60.14;100467.22;4953459;29;20058;-72
2022/09/30 06:49:57;;;;;;;18.30;11.63;;;;;;;8.16;59.82;100475.56;4953786;29;20098;-71
2022/09/30 06:52:25;;;;;;;16.48;11.07;;;;;;;8.50;58.85;100481.06;4953082;29;20139;-73
2022/09/30 06:54:51;;;;;;;16.15;9.93;;;;;;;9.23;57.18;100478.19;4953481;29;20043;-72
2022/09/30 06:57:21;;;;;;;14.25;10.07;;;;;;;9.86;55.01;100484.22;4953248;29;20478;-71
2022/09/30 06:59:49;;;;;;;16.55;9.70;;;;;;;9.90;54.45;100475.69;4952781;28;20047;-72
2022/09/30 07:02:15;;;;;;;15.85;9.70;;;;;;;10.29;53.35;100483.16;4952826;28;20066;-72
2022/09/30 07:04:42;;;;;;;14.98;8.45;;;;;;;10.34;52.62;100486.22;4952421;28;20061;-73
2022/09/30 07:07:09;;;;;;;15.68;8.82;;;;;;;10.89;51.75;100488.28;4951086;29;20055;-72
2022/09/30 07:09:36;;;;;;;16.75;9.73;;;;;;;11.59;50.06;100485.00;4953668;28;20047;-73
2022/09/30 07:12:03;;;;;;;11.85;8.27;;;;;;;12.27;48.55;100491.63;4937532;29;20111;-72
2022/09/30 07:14:30;;;;;;;13.55;9.15;;;;;;;12.80;47.62;100483.72;4934129;29;20070;-73
2022/09/30 07:16:57;;;;;;;17.77;8.93;;;;;;;13.26;45.81;100486.34;4933662;29;20055;-72
2022/09/30 07:19:23;;;;;;;15.43;8.43;;;;;;;13.76;45.01;100496.44;4933750;29;20074;-73
2022/09/30 07:21:50;;;;;;;12.13;8.50;;;;;;;13.83;44.17;100491.97;4932839;29;20122;-72
2022/09/30 07:24:17;;;;;;;11.20;8.23;;;;;;;14.42;43.04;100493.69;4933551;29;20055;-72
2022/09/30 07:26:44;;;;;;;15.13;8.52;;;;;;;13.97;43.44;100502.91;4933395;29;20043;-73
2022/09/30 07:29:12;;;;;;;17.15;8.07;;;;;;;14.10;43.46;100495.00;4933032;29;20052;-71
2022/09/30 07:31:39;;;;;;;12.55;8.20;;;;;;;13.85;43.63;100502.56;4932951;29;20412;-71
2022/09/30 07:34:08;;;;;;;13.95;8.20;;;;;;;14.06;43.58;100497.25;4934502;29;20484;-72
2022/09/30 07:36:37;;;;;;;13.52;8.75;;;;;;;13.97;43.90;100508.31;4933656;29;20048;-73
2022/09/30 07:39:07;;;;;;;11.13;7.85;;;;;;;14.45;43.09;100511.38;4933524;29;20059;-73
2022/09/30 07:41:37;;;;;;;15.75;8.05;;;;;;;14.42;42.48;100511.75;4933575;29;20403;-72
2022/09/30 07:44:06;;;;;;;13.98;8.15;;;;;;;13.56;44.56;100506.06;4933103;29;20048;-72
2022/09/30 07:46:37;;;;;;;19.98;8.35;;;;;;;14.90;42.19;100502.09;4933708;29;20047;-73
2022/09/30 07:49:07;;;;;;;13.45;8.88;;;;;;;14.86;42.66;100505.41;4933390;29;20452;-72
2022/09/30 07:51:36;;;;;;;12.10;8.60;;;;;;;16.01;40.46;100499.56;4933693;29;20047;-73
2022/09/30 07:54:06;;;;;;;17.23;10.20;;;;;;;15.77;40.42;100506.28;4915871;29;20044;-73
2022/09/30 07:56:37;;;;;;;15.23;9.00;;;;;;;15.39;41.59;100505.81;4932292;29;20051;-72
2022/09/30 07:59:26;;;;;;;12.30;8.80;;;;;;;15.55;41.05;100510.94;4932424;29;20151;-73
2022/09/30 08:01:52;;;;;;;13.93;8.23;;;;;;;16.07;39.90;100515.00;4916307;29;20047;-78
2022/09/30 08:04:21;;;;;;;16.17;8.82;;;;;;;16.20;40.23;100511.50;4932451;29;20062;-72
2022/09/30 08:06:50;;;;;;;13.35;8.52;;;;;;;16.84;38.75;100512.94;4933499;29;20052;-73
2022/09/30 08:09:19;;;;;;;15.27;9.27;;;;;;;16.33;39.55;100526.94;4932124;29;20415;-72
2022/09/30 08:11:46;;;;;;;12.70;9.20;;;;;;;16.72;38.45;100520.84;4945085;29;20055;-72
2022/09/30 08:14:16;;;;;;;11.93;9.65;;;;;;;17.23;38.20;100516.69;4951928;29;20047;-72
2022/09/30 08:16:42;;;;;;;13.45;7.78;;;;;;;17.20;38.04;100530.66;4951501;29;20043;-72
2022/09/30 08:19:15;;;;;;;13.95;8.70;;;;;;;16.93;38.31;100527.97;4951244;28;20376;-70
2022/09/30 08:21:42;;;;;;;12.88;8.15;;;;;;;17.19;38.05;100526.31;4950797;29;20043;-72
2022/09/30 08:24:10;;;;;;;13.02;8.95;;;;;;;16.91;38.96;100524.63;4949201;28;20051;-71
2022/09/30 08:26:37;;;;;;;17.58;8.75;;;;;;;17.14;38.52;100530.47;4952033;29;20043;-73
2022/09/30 08:29:04;;;;;;;12.05;8.30;;;;;;;17.75;37.25;100531.28;4950845;29;20047;-73
2022/09/30 08:31:32;;;;;;;13.52;8.43;;;;;;;17.47;37.84;100535.06;4950966;29;20054;-71
2022/09/30 08:33:59;;;;;;;14.27;9.48;;;;;;;17.00;38.89;100536.09;4951518;29;20122;-72
2022/09/30 08:36:26;;;;;;;13.15;8.77;;;;;;;17.07;38.56;100524.22;4950802;29;20211;-73
2022/09/30 08:38:53;;;;;;;10.27;8.38;;;;;;;16.93;38.94;100532.56;4951460;29;20044;-72
2022/09/30 08:41:38;;;;;;;15.02;8.95;;;;;;;17.25;38.01;100537.16;4952530;28;20051;-72
2022/09/30 08:44:22;;;;;;;15.43;8.52;;;;;;;17.96;37.12;100538.31;4950872;29;20054;-72
2022/09/30 08:47:07;;;;;;;10.18;8.15;;;;;;;18.37;36.28;100546.13;4951462;29;20046;-72
2022/09/30 08:49:33;;;;;;;13.18;8.88;;;;;;;16.72;38.46;100553.34;4951588;28;20387;-72
2022/09/30 08:52:01;;;;;;;12.50;9.27;;;;;;;17.67;37.24;100550.50;4951115;29;24699;-73
2022/09/30 08:54:32;;;;;;;11.98;8.10;;;;;;;18.27;36.58;100541.19;4951280;29;20061;-71
2022/09/30 08:57:05;;;;;;;10.77;8.80;;;;;;;17.34;38.33;100541.34;4951167;29;20065;-73
2022/09/30 08:59:37;;;;;;;13.68;9.38;;;;;;;17.38;38.00;100549.91;4933356;29;20054;-73
2022/09/30 09:02:09;;;;;;;;;;;;;;;17.92;36.99;100548.75;4950637;28;20407;-71
2022/09/30 09:04:42;;;;;;;17.95;8.10;;;;;;;17.83;36.57;100555.47;4950255;29;19924;-71
2022/09/30 09:07:22;;;;;;;11.20;8.30;;;;;;;17.63;36.70;100560.94;4951497;29;20062;-72
2022/09/30 09:10:10;;;;;;;12.98;8.82;;;;;;;17.80;36.97;100555.91;4951113;29;20043;-73
2022/09/30 09:12:55;;;;;;;13.23;7.97;;;;;;;19.10;35.11;100550.31;4909186;29;20404;-72
2022/09/30 09:15:27;;;;;;;11.48;7.50;;;;;;;18.96;34.89;100558.56;4912543;29;20059;-71
2022/09/30 09:18:25;;;;;;;13.23;8.02;;;;;;;19.94;33.75;100559.84;4911809;29;20044;-71
2022/09/30 09:21:08;;;;;;;9.85;7.25;;;;;;;17.98;36.82;100552.50;4906621;29;20048;-73
2022/09/30 09:23:35;;;;;;;10.77;8.05;;;;;;;19.22;34.81;100556.72;4912555;29;20048;-72
2022/09/30 09:26:03;;;;;;;8.95;7.25;;;;;;;20.27;33.28;100561.34;4912499;29;20056;-73
2022/09/30 09:28:34;;;;;;;11.77;7.28;;;;;;;20.03;32.88;100554.91;4913531;29;20059;-70
2022/09/30 09:31:01;;;;;;;10.98;7.47;;;;;;;19.06;34.84;100555.34;4913003;29;20052;-73
2022/09/30 09:33:30;;;;;;;13.35;7.03;;;;;;;19.36;34.08;100558.25;4914175;29;20056;-73
2022/09/30 09:36:00;;;;;;;10.82;6.25;;;;;;;20.75;31.93;100555.91;4916069;29;20056;-73
2022/09/30 09:38:34;;;;;;;11.55;7.22;;;;;;;21.02;31.09;100550.88;4915347;29;20059;-73
2022/09/30 09:41:16;;;;;;;10.88;6.10;;;;;;;19.75;32.76;100563.59;4916329;29;20576;-72
2022/09/30 09:43:50;;;;;;;8.52;5.80;;;;;;;19.18;34.07;100555.50;4916240;29;20058;-72
2022/09/30 09:46:40;;;;;;;8.13;6.15;;;;;;;19.82;32.91;100556.19;4916218;29;20063;-72
2022/09/30 09:49:12;;;;;;;9.75;6.00;;;;;;;19.73;32.88;100550.22;4878897;29;20047;-72
2022/09/30 09:51:47;;;;;;;10.80;6.22;;;;;;;20.09;31.98;100560.28;4916316;29;20400;-73
2022/09/30 09:54:18;;;;;;;6.78;5.70;;;;;;;20.30;31.92;100550.81;4915542;29;20059;-73
2022/09/30 09:56:45;;;;;;;6.75;5.03;;;;;;;20.57;31.17;100547.78;4915399;29;20044;-73
2022/09/30 09:59:16;;;;;;;9.65;4.90;;;;;;;20.07;31.68;100550.66;4915973;29;20055;-73
2022/09/30 10:01:52;;;;;;;6.72;5.47;;;;;;;21.10;30.62;100545.06;4914692;29;20043;-72
2022/09/30 10:04:26;;;;;;;8.15;5.07;;;;;;;21.47;29.71;100535.91;4915794;29;20055;-72
2022/09/30 10:06:56;;;;;;;9.25;5.20;;;;;;;21.11;30.42;100535.03;4915300;29;20096;-72
2022/09/30 10:09:38;;;;;;;6.13;4.57;;;;;;;20.72;30.42;100537.28;4915795;29;20052;-72
2022/09/30 10:12:04;;;;;;;7.32;5.43;;;;;;;19.73;31.92;100542.88;4946011;29;20403;-73
2022/09/30 10:14:48;;;;;;;7.28;5.72;;;;;;;19.71;32.55;100536.00;4953393;29;20054;-71
2022/09/30 10:17:28;;;;;;;10.32;5.15;;;;;;;20.95;30.60;100535.69;4953981;29;20055;-74
2022/09/30 10:20:00;;;;;;;7.68;5.45;;;;;;;20.06;31.83;100532.66;4954202;29;20047;-71
2022/09/30 10:22:29;;;;;;;8.77;5.30;;;;;;;20.09;31.84;100526.78;4953847;29;20047;-71
2022/09/30 10:25:16;;;;;;;10.40;5.43;;;;;;;20.07;31.86;100529.72;4953814;29;20518;-73
2022/09/30 10:27:49;;;;;;;7.65;4.88;;;;;;;20.22;31.48;100532.06;4953912;29;20051;-73
2022/09/30 10:30:30;;;;;;;9.23;4.88;;;;;;;20.01;31.96;100529.81;4953511;29;20085;-71
2022/09/30 10:32:58;;;;;;;8.82;5.15;;;;;;;19.84;32.63;100521.41;4954049;28;20047;-72
2022/09/30 10:35:24;;;;;;;7.53;5.07;;;;;;;19.81;32.55;100519.13;4953072;28;20051;-75
2022/09/30 10:37:53;;;;;;;10.13;4.30;;;;;;;20.19;32.17;100530.63;4952905;29;20479;-72
2022/09/30 10:40:26;;;;;;;6.55;4.70;;;;;;;19.32;33.13;100516.25;4952852;28;20051;-73
2022/09/30 10:42:54;;;;;;;9.13;4.65;;;;;;;19.93;32.18;100518.16;4945947;29;20387;-73
2022/09/30 10:45:24;;;;;;;5.22;4.15;;;;;;;20.55;31.20;100517.19;4951621;28;20055;-74
2022/09/30 10:47:54;;;;;;;6.28;4.50;;;;;;;19.88;31.75;100520.72;4952626;29;20051;-72
2022/09/30 10:50:26;;;;;;;9.10;5.32;;;;;;;19.00;33.01;100529.06;4952578;28;20055;-73
2022/09/30 10:53:00;;;;;;;7.75;4.80;;;;;;;19.52;32.28;100526.94;4953102;29;20090;-73
2022/09/30 10:55:40;;;;;;;9.02;5.53;;;;;;;20.00;31.80;100520.78;4952256;29;20062;-71
2022/09/30 10:58:21;;;;;;;8.85;5.00;;;;;;;18.76;33.47;100511.66;4952457;29;20491;-72
2022/09/30 11:01:15;;;;;;;5.37;3.90;;;;;;;20.11;31.75;100521.94;4952402;29;20055;-72
2022/09/30 11:03:52;;;;;;;6.10;3.92;;;;;;;18.97;33.41;100516.75;4952316;29;20142;-73
2022/09/30 11:06:21;;;;;;;9.85;3.35;;;;;;;19.25;32.86;100510.03;4952757;28;20062;-73
2022/09/30 11:08:51;;;;;;;8.38;2.97;;;;;;;20.78;30.01;100502.81;4952560;29;20055;-72
2022/09/30 11:11:26;;;;;;;7.50;2.88;;;;;;;21.31;28.83;100504.69;4942845;29;20051;-72
2022/09/30 11:13:54;;;;;;;9.48;2.95;;;;;;;21.40;28.66;100502.44;4932907;29;20054;-72
2022/09/30 11:16:48;;;;;;;10.57;3.97;;;;;;;18.86;32.69;100511.13;4933475;29;20074;-73
2022/09/30 11:19:38;;;;;;;5.03;3.83;;;;;;;18.66;32.93;100506.69;4934120;29;20044;-73
2022/09/30 11:22:37;;;;;;;7.53;3.20;;;;;;;19.66;31.35;100503.16;4932002;29;20044;-74
2022/09/30 11:25:04;;;;;;;6.30;3.20;;;;;;;18.79;32.11;100495.72;4933457;29;20048;-74
2022/09/30 11:27:37;;;;;;;6.60;3.03;;;;;;;18.98;31.36;100496.66;4932942;29;20404;-72
2022/09/30 11:30:16;;;;;;;7.70;5.25;;;;;;;18.98;31.30;100496.66;4933547;29;20051;-72
2022/09/30 11:32:58;;;;;;;8.45;2.70;;;;;;;20.21;29.65;100497.69;4933461;29;20070;-74
2022/09/30 11:36:00;;;;;;;4.53;2.03;;;;;;;20.43;29.87;100495.34;4932562;29;20052;-72
2022/09/30 11:38:42;;;;;;;8.00;2.83;;;;;;;21.19;28.72;100490.22;4916465;29;20062;-73
2022/09/30 11:41:17;;;;;;;3.72;2.30;;;;;;;18.67;31.27;100499.38;4933469;29;20474;-73
2022/09/30 11:44:02;;;;;;;6.88;2.28;;;;;;;20.48;29.46;100503.66;4933495;29;20419;-72
2022/09/30 11:47:00;;;;;;;6.65;2.00;;;;;;;21.73;26.10;100504.53;4932660;29;20040;-72
2022/09/30 11:49:33;;;;;;;5.55;1.58;;;;;;;22.48;25.34;100499.03;4933082;29;20064;-72
2022/09/30 11:52:14;;;;;;;5.53;1.73;;;;;;;23.61;23.88;100503.66;4933379;29;20051;-72
2022/09/30 11:54:51;;;;;;;5.25;1.55;;;;;;;24.21;23.31;100495.41;4932020;29;20122;-73
2022/09/30 11:57:20;;;;;;;7.28;1.40;;;;;;;25.00;21.62;100496.78;4930287;29;20051;-72
2022/09/30 11:59:58;;;;;;;4.53;1.38;;;;;;;25.81;20.99;100492.94;4933702;29;20103;-73
2022/09/30 12:02:32;;;;;;;6.43;1.70;;;;;;;24.07;22.17;100498.78;4932070;29;20052;-72
2022/09/30 12:05:11;;;;;;;4.90;1.75;;;;;;;25.73;20.94;100486.03;4916355;29;20052;-73
2022/09/30 12:07:43;;;;;;;19.70;3.55;;;;;;;25.54;21.22;100490.28;4932799;29;20066;-74
2022/09/30 12:10:26;;;;;;;6.22;1.50;;;;;;;22.42;23.75;100496.41;4932006;29;20051;-73
2022/09/30 12:12:58;;;;;;;4.65;1.17;;;;;;;22.64;23.17;100500.16;4911427;29;20054;-73
2022/09/30 12:15:26;;;;;;;3.72;1.35;;;;;;;22.75;23.91;100488.31;4913111;29;20059;-73
2022/09/30 12:18:08;;;;;;;4.55;1.10;;;;;;;22.42;24.69;100485.47;4912683;29;20358;-72
2022/09/30 12:20:50;;;;;;;8.57;2.33;;;;;;;20.74;26.90;100477.91;4912009;29;20052;-72
2022/09/30 12:23:19;;;;;;;33.00;4.85;;;;;;;19.02;29.89;100494.31;4913339;29;20538;-73
2022/09/30 12:25:53;;;;;;;10.60;2.10;;;;;;;19.25;29.63;100494.56;4913188;29;20075;-73
2022/09/30 12:32:00;;;;;;;10.75;2.70;;;;;;;19.74;28.79;100492.00;4909746;29;20486;-72
2022/09/30 12:34:54;;;;;;;3.22;1.85;;;;;;;21.04;27.19;100485.16;4913036;29;20040;-73
2022/09/30 12:37:29;;;;;;;6.15;2.10;;;;;;;21.20;26.87;100481.78;4911809;29;20040;-73
2022/09/30 12:40:24;;;;;;;3.58;1.77;;;;;;;22.88;24.91;100486.31;4912915;29;20048;-73
2022/09/30 12:42:58;;;;;;;6.10;1.85;;;;;;;24.00;23.13;100484.47;4913079;29;20102;-72
2022/09/30 12:46:01;;;;;;;8.23;1.88;;;;;;;24.90;22.10;100481.03;4896483;29;20051;-74
2022/09/30 12:48:42;;;;;;;3.67;1.25;;;;;;;23.73;22.95;100486.00;4913209;29;20046;-73
2022/09/30 12:51:19;;;;;;;4.20;2.00;;;;;;;23.23;23.77;100497.06;4903763;29;20444;-73
2022/09/30 12:53:50;;;;;;;6.85;1.98;;;;;;;22.48;24.83;100495.47;4913346;29;20055;-74
2022/09/30 12:56:17;;;;;;;4.43;1.63;;;;;;;21.34;26.28;100491.41;4913484;29;20052;-73
2022/09/30 12:58:48;;;;;;;4.18;1.83;;;;;;;20.02;28.65;100490.63;4912137;29;20048;-72
2022/09/30 13:01:22;;;;;;;3.85;1.65;;;;;;;19.90;28.62;100490.53;4914100;29;20044;-72
2022/09/30 13:04:15;;;;;;;4.55;1.67;;;;;;;19.77;29.08;100490.72;4911667;29;20140;-73
2022/09/30 13:06:44;;;;;;;6.05;1.63;;;;;;;19.58;29.96;100495.28;4913015;29;20540;-73
2022/09/30 13:09:30;;;;;;;3.88;1.80;;;;;;;17.96;31.17;100487.59;4915361;29;20492;-74
2022/09/30 13:11:56;;;;;;;4.80;1.42;;;;;;;17.60;32.19;100488.94;4944851;29;20471;-71
2022/09/30 13:14:42;;;;;;;4.55;1.38;;;;;;;17.16;32.68;100488.75;4955626;29;20043;-74
2022/09/30 13:17:11;;;;;;;2.95;1.10;;;;;;;17.38;32.07;100490.25;4954066;29;20091;-73
2022/09/30 13:19:39;;;;;;;4.47;1.48;;;;;;;17.30;32.45;100495.84;4954739;29;20459;-73
2022/09/30 13:22:39;;;;;;;6.38;1.75;;;;;;;17.40;32.31;100493.56;4955301;29;20051;-73
2022/09/30 13:25:12;;;;;;;7.50;2.42;;;;;;;17.11;33.34;100492.94;4954068;29;20415;-73
2022/09/30 13:28:12;;;;;;;8.73;1.83;;;;;;;17.44;32.98;100500.25;4954468;28;20047;-73
2022/09/30 13:30:39;;;;;;;4.47;1.30;;;;;;;17.59;32.64;100498.13;4953388;28;20055;-73
2022/09/30 13:33:27;;;;;;;5.57;1.40;;;;;;;16.92;33.37;100492.94;4954097;28;20043;-73
2022/09/30 13:35:57;;;;;;;4.15;1.52;;;;;;;16.66;33.86;100492.69;4953721;29;20059;-69
2022/09/30 13:38:39;;;;;;;4.82;1.40;;;;;;;16.61;32.70;100489.78;4953566;29;20043;-72
2022/09/30 13:41:14;;;;;;;7.95;2.08;;;;;;;16.83;32.90;100487.72;4954785;29;20054;-73
2022/09/30 13:43:55;;;;;;;2.15;1.02;;;;;;;16.64;32.46;100496.66;4953674;28;20047;-73
2022/09/30 13:46:28;;;;;;;3.65;1.48;;;;;;;16.92;32.42;100488.38;4954901;29;20035;-73
2022/09/30 13:49:32;;;;;;;6.53;1.38;;;;;;;17.14;31.96;100489.00;4953106;29;20130;-72
2022/09/30 13:52:01;;;;;;;5.15;2.17;;;;;;;16.63;32.93;100479.56;4953881;28;20411;-72
2022/09/30 13:54:35;;;;;;;3.45;1.65;;;;;;;16.49;32.84;100483.25;4953398;28;20428;-73
2022/09/30 13:57:05;;;;;;;1.98;1.55;;;;;;;16.40;32.79;100487.19;4953918;28;20047;-72
2022/09/30 13:59:59;;;;;;;2.55;1.45;;;;;;;16.16;33.54;100485.91;4954035;28;20043;-73
2022/09/30 14:02:42;;;;;;;6.00;1.52;;;;;;;16.26;33.61;100482.78;4954117;29;20550;-73
2022/09/30 14:05:38;;;;;;;5.93;1.33;;;;;;;16.54;33.33;100485.38;4954216;28;20051;-74
2022/09/30 14:08:20;;;;;;;6.35;2.08;;;;;;;16.86;33.25;100481.91;4953401;28;20484;-74
2022/09/30 14:11:08;;;;;;;4.00;1.17;;;;;;;16.67;33.05;100483.53;4953225;28;20042;-73
2022/09/30 14:14:11;;;;;;;2.17;1.20;;;;;;;16.43;33.24;100481.38;4952955;29;20047;-72
2022/09/30 14:16:52;;;;;;;7.25;1.60;;;;;;;16.67;32.68;100483.53;4948598;29;20050;-73
2022/09/30 14:19:31;;;;;;;7.93;1.73;;;;;;;16.77;32.84;100485.84;4952015;28;20529;-73
2022/09/30 14:22:03;;;;;;;7.13;1.70;;;;;;;16.65;32.56;100491.03;4953460;29;20051;-72
2022/09/30 14:24:34;;;;;;;2.42;1.20;;;;;;;16.41;32.89;100489.72;4954268;29;20498;-73
2022/09/30 14:27:28;;;;;;;3.80;1.45;;;;;;;16.33;33.06;100497.16;4943972;29;20051;-73
2022/09/30 14:30:15;;;;;;;2.50;1.20;;;;;;;16.70;32.63;100495.00;4953239;28;20039;-73
2022/09/30 14:32:58;;;;;;;5.35;2.35;;;;;;;16.21;34.12;100496.09;4952713;29;20058;-72
2022/09/30 14:35:28;;;;;;;4.55;1.70;;;;;;;15.97;33.75;100494.75;4953654;29;20050;-72
2022/09/30 14:38:04;;;;;;;7.28;1.52;;;;;;;15.85;34.34;100502.63;4952445;28;20510;-72
2022/09/30 14:40:39;;;;;;;3.67;1.40;;;;;;;15.79;34.23;100504.25;4939543;29;20046;-72
2022/09/30 14:43:11;;;;;;;4.10;1.27;;;;;;;15.97;34.14;100501.00;4953207;29;20051;-73
2022/09/30 14:45:41;;;;;;;5.55;1.70;;;;;;;16.18;34.08;100495.47;4953207;29;20043;-73
2022/09/30 14:48:14;;;;;;;5.10;1.52;;;;;;;16.02;34.08;100498.53;4938363;29;20118;-73
2022/09/30 14:50:47;;;;;;;2.90;1.40;;;;;;;15.68;34.28;100497.53;4924080;29;20052;-72
2022/09/30 14:53:34;;;;;;;4.13;1.48;;;;;;;15.75;34.18;100504.84;4934387;29;20048;-73
2022/09/30 14:56:05;;;;;;;4.72;1.33;;;;;;;16.00;34.49;100502.47;4933128;29;20054;-73
2022/09/30 14:58:41;;;;;;;8.65;1.55;;;;;;;16.24;34.11;100501.13;4932646;29;20384;-73